Temp: 3.1°C   Baro: 1026.5mb
  Wind: 0.0mph   Dir: ESE (123°)
  Rain: 0.0mm (0.0mm/hr)
  Solar: 69W/m2  Hum: 97%

Historic data

Bath Spa Weather Station Historical Data
Daily Summary for September 26, 2022 Units:  English    Metric   Both
Daily Weekly Monthly Yearly Custom
  High: Low: Average:
Temperature: 60.6 °F 51.3 °F 55.3 °F
Dew Point: 54.3 °F 44.1 °F 48.2 °F
Humidity: 94% 57.5% 78%
Wind Speed: 14.6mph 1mph 6mph
Wind Gust: 27mph - -
Wind- - WNW
Pressure: 29.89 in 29.61 in -
Precipitation: 0.24 in    
Historical Graphs
 
 
Tabular Data for September 26, 2022
Time Temperature Dew Point Pressure Wind Wind Speed Wind Gust Humidity Rainfall Rate (Hourly) solar
00:09 54.3 °F 47.7 °F 29.89 in West 3.5 mph 7 mph 78% 0.00 in 0 W/m2
00:14 54.5 °F 47.8 °F 29.88 in West 4.1 mph 10 mph 78% 0.00 in 0 W/m2
00:19 54.8 °F 48.1 °F 29.88 in West 5.3 mph 10 mph 78% 0.00 in 0 W/m2
00:24 55 °F 48.4 °F 29.88 in West 5.8 mph 13 mph 78% 0.00 in 0 W/m2
00:29 55.2 °F 48.6 °F 29.87 in WSW 4.7 mph 9 mph 78% 0.00 in 0 W/m2
00:34 55.2 °F 48.6 °F 29.87 in West 4.5 mph 9 mph 78% 0.00 in 0 W/m2
00:39 55.4 °F 48.7 °F 29.87 in West 5.2 mph 10 mph 78% 0.00 in 0 W/m2
00:44 55.6 °F 48.9 °F 29.86 in West 4.8 mph 7 mph 78% 0.00 in 0 W/m2
00:49 55.6 °F 48.9 °F 29.86 in WNW 4.9 mph 8 mph 78% 0.00 in 0 W/m2
00:54 55.8 °F 48.9 °F 29.86 in West 4.6 mph 9 mph 78% 0.00 in 0 W/m2
00:59 55.8 °F 48.9 °F 29.85 in WNW 6.3 mph 11 mph 78% 0.00 in 0 W/m2
01:04 55.9 °F 49.1 °F 29.85 in West 3.8 mph 10 mph 78% 0.00 in 0 W/m2
01:09 55.9 °F 49.3 °F 29.85 in West 6.6 mph 13 mph 78.4% 0.00 in 0 W/m2
01:14 56.2 °F 49.7 °F 29.85 in West 5.5 mph 10 mph 79% 0.00 in 0 W/m2
01:19 56.4 °F 49.9 °F 29.84 in West 6.8 mph 13 mph 79% 0.00 in 0 W/m2
01:24 56.5 °F 50 °F 29.84 in West 5.7 mph 13 mph 79% 0.00 in 0 W/m2
01:29 56.4 °F 50.2 °F 29.83 in WSW 6.2 mph 17 mph 79.8% 0.00 in 0 W/m2
01:34 56.3 °F 50.3 °F 29.83 in West 4.2 mph 12 mph 80% 0.00 in 0 W/m2
01:39 56 °F 50.2 °F 29.83 in WSW 2.9 mph 5 mph 80.8% 0.00 in 0 W/m2
01:44 55.6 °F 50 °F 29.82 in WSW 3.2 mph 6 mph 81.6% 0.00 in 0 W/m2
01:49 54.9 °F 49.6 °F 29.81 in SW 2.6 mph 5 mph 82.4% 0.00 in 0 W/m2
01:54 54.3 °F 49.4 °F 29.81 in SSW 4 mph 8 mph 83.4% 0.02 in 0 W/m2
01:59 54 °F 49.5 °F 29.80 in SW 6.4 mph 10 mph 84.6% 0.02 in 0 W/m2
02:04 53.6 °F 49.4 °F 29.80 in SW 6 mph 14 mph 85.6% 0.02 in 0 W/m2
02:09 53.2 °F 49.4 °F 29.80 in SW 6.4 mph 15 mph 86.8% 0.03 in 0 W/m2
02:14 53 °F 49.4 °F 29.79 in SW 4.4 mph 13 mph 87.4% 0.03 in 0 W/m2
02:19 52.9 °F 49.5 °F 29.79 in SW 6.1 mph 15 mph 88% 0.03 in 0 W/m2
02:24 52.7 °F 49.4 °F 29.79 in SW 4.9 mph 10 mph 88.2% 0.03 in 0 W/m2
02:29 52.6 °F 49.5 °F 29.79 in SW 5.2 mph 13 mph 89% 0.03 in 0 W/m2
02:34 52.7 °F 49.5 °F 29.78 in WSW 5.6 mph 13 mph 89% 0.04 in 0 W/m2
02:39 52.7 °F 49.6 °F 29.78 in SW 5.5 mph 12 mph 89.4% 0.04 in 0 W/m2
02:44 52.7 °F 49.7 °F 29.78 in WSW 4.1 mph 12 mph 89.8% 0.04 in 0 W/m2
02:49 52.9 °F 50 °F 29.77 in WSW 4.5 mph 8 mph 90% 0.04 in 0 W/m2
02:54 53.1 °F 50.3 °F 29.77 in WSW 7.9 mph 15 mph 90.2% 0.04 in 0 W/m2
02:59 53.1 °F 50.5 °F 29.76 in WSW 5.2 mph 9 mph 91% 0.02 in 0 W/m2
03:04 52.9 °F 50.4 °F 29.76 in WSW 6.2 mph 15 mph 91% 0.02 in 0 W/m2
03:09 52.7 °F 50.2 °F 29.76 in SW 4.4 mph 11 mph 91% 0.02 in 0 W/m2
03:14 52.5 °F 50 °F 29.75 in WSW 5.4 mph 11 mph 91% 0.02 in 0 W/m2
03:19 52.6 °F 50.1 °F 29.75 in WSW 6 mph 11 mph 91% 0.02 in 0 W/m2
03:24 52.7 °F 50.4 °F 29.75 in WSW 4.8 mph 11 mph 91.8% 0.02 in 0 W/m2
03:29 52.9 °F 50.5 °F 29.75 in WSW 4.4 mph 8 mph 92% 0.02 in 0 W/m2
03:34 53.1 °F 50.7 °F 29.74 in WSW 4.8 mph 11 mph 92% 0.02 in 0 W/m2
03:39 53.1 °F 50.7 °F 29.74 in WSW 4.5 mph 8 mph 92% 0.03 in 0 W/m2
03:44 53.1 °F 50.7 °F 29.73 in SW 4.2 mph 10 mph 92% 0.05 in 0 W/m2
03:49 53.1 °F 50.7 °F 29.73 in WSW 4.4 mph 7 mph 92% 0.07 in 0 W/m2
03:54 53.1 °F 50.8 °F 29.73 in WSW 3.2 mph 7 mph 92% 0.09 in 0 W/m2
03:59 53.2 °F 50.9 °F 29.72 in WSW 4.3 mph 7 mph 92% 0.10 in 0 W/m2
04:04 53.3 °F 51 °F 29.72 in West 6.4 mph 12 mph 92.2% 0.12 in 0 W/m2
04:09 53.4 °F 51.4 °F 29.71 in WSW 4.3 mph 10 mph 93% 0.13 in 0 W/m2
04:14 53.6 °F 51.6 °F 29.70 in WSW 4.1 mph 8 mph 93% 0.13 in 0 W/m2
04:19 53.6 °F 51.6 °F 29.70 in West 4 mph 8 mph 93% 0.13 in 0 W/m2
04:24 53.6 °F 51.6 °F 29.70 in WSW 2.2 mph 7 mph 93% 0.13 in 0 W/m2
04:29 53.6 °F 51.6 °F 29.69 in SW 5.6 mph 12 mph 93% 0.13 in 0 W/m2
04:34 53.8 °F 51.8 °F 29.68 in WSW 6.6 mph 12 mph 93% 0.13 in 0 W/m2
04:39 53.8 °F 51.8 °F 29.68 in WSW 6.4 mph 11 mph 93% 0.13 in 0 W/m2
04:44 53.8 °F 51.8 °F 29.68 in WSW 5.4 mph 9 mph 93% 0.12 in 0 W/m2
04:49 54 °F 52 °F 29.67 in West 4.4 mph 10 mph 93% 0.10 in 0 W/m2
04:54 54.1 °F 52.1 °F 29.67 in West 5.9 mph 10 mph 93% 0.08 in 0 W/m2
04:59 54.1 °F 52.2 °F 29.67 in West 6.4 mph 12 mph 93% 0.06 in 0 W/m2
05:04 54.3 °F 52.3 °F 29.67 in West 5 mph 11 mph 93% 0.03 in 0 W/m2
05:09 54.3 °F 52.3 °F 29.67 in WSW 4.8 mph 9 mph 93% 0.02 in 0 W/m2
05:14 54.5 °F 52.5 °F 29.66 in WSW 5 mph 10 mph 93% 0.02 in 0 W/m2
05:18 54.5 °F 52.9 °F 29.66 in WSW 5 mph 9 mph 94% 0.02 in 0 W/m2
05:24 54.6 °F 53 °F 29.65 in WSW 3.7 mph 7 mph 94% 0.02 in 0 W/m2
05:29 54.5 °F 52.9 °F 29.65 in WSW 3.9 mph 8 mph 94% 0.02 in 0 W/m2
05:34 54.7 °F 53.1 °F 29.65 in West 3.2 mph 7 mph 94% 0.02 in 0 W/m2
05:39 54.8 °F 53.1 °F 29.64 in West 3.2 mph 8 mph 94% 0.02 in 0 W/m2
05:44 54.9 °F 53.2 °F 29.64 in West 2.5 mph 7 mph 94% 0.02 in 0 W/m2
05:49 54.9 °F 53.2 °F 29.63 in WSW 3.1 mph 7 mph 94% 0.02 in 0 W/m2
05:54 55 °F 53.4 °F 29.62 in SW 2.4 mph 7 mph 94% 0.02 in 0 W/m2
05:59 55.2 °F 53.6 °F 29.62 in West 3.3 mph 8 mph 94% 0.02 in 0 W/m2
06:04 55.5 °F 53.9 °F 29.62 in West 4.4 mph 7 mph 94% 0.02 in 0 W/m2
06:09 55.7 °F 54 °F 29.62 in West 4.8 mph 8 mph 94% 0.01 in 0 W/m2
06:14 55.9 °F 54.2 °F 29.62 in WNW 5.2 mph 10 mph 94% 0.01 in 0 W/m2
06:19 55.9 °F 54.3 °F 29.62 in West 6.3 mph 10 mph 94% 0.01 in 0 W/m2
06:24 55.9 °F 54.3 °F 29.62 in West 4.8 mph 10 mph 94% 0.01 in 0 W/m2
06:29 55.9 °F 54.3 °F 29.62 in WNW 4.5 mph 10 mph 94% 0.01 in 0 W/m2
06:34 55.8 °F 54.2 °F 29.62 in WNW 6.7 mph 10 mph 94% 0.00 in 0 W/m2
06:39 55.8 °F 53.9 °F 29.62 in WNW 5.1 mph 11 mph 93.2% 0.00 in 0 W/m2
06:44 55.8 °F 53.8 °F 29.62 in WNW 6 mph 14 mph 93% 0.00 in 0 W/m2
06:49 55.6 °F 53.6 °F 29.62 in WNW 4.9 mph 11 mph 93% 0.00 in 0 W/m2
06:54 55.4 °F 53.3 °F 29.63 in NW 6 mph 10 mph 92.8% 0.00 in 0 W/m2
06:59 55.1 °F 52.8 °F 29.63 in WNW 5.1 mph 11 mph 92% 0.00 in 0 W/m2
07:04 55 °F 52.5 °F 29.63 in NW 5.5 mph 17 mph 91.2% 0.00 in 0 W/m2
07:09 54.9 °F 52 °F 29.63 in NW 5.3 mph 14 mph 90.2% 0.00 in 0 W/m2
07:14 54.7 °F 51.4 °F 29.62 in WNW 4.1 mph 8 mph 88.6% 0.00 in 5 W/m2
07:19 54.6 °F 51.1 °F 29.62 in WNW 4.1 mph 10 mph 87.6% 0.00 in 11 W/m2
07:24 54.5 °F 50.6 °F 29.62 in WNW 3.9 mph 7 mph 86.5% 0.00 in 14 W/m2
07:29 54.5 °F 50.2 °F 29.61 in West 4.7 mph 12 mph 85.4% 0.00 in 16 W/m2
07:34 54.6 °F 50 °F 29.62 in WNW 3.2 mph 8 mph 84.6% 0.00 in 14 W/m2
07:39 54.5 °F 49.8 °F 29.62 in WNW 3.5 mph 8 mph 84% 0.00 in 21 W/m2
07:44 54.7 °F 49.6 °F 29.62 in WNW 5.8 mph 11 mph 83.2% 0.00 in 25 W/m2
07:49 54.8 °F 49.4 °F 29.62 in West 4.8 mph 9 mph 82% 0.00 in 40 W/m2
07:54 54.9 °F 49.1 °F 29.62 in West 5.2 mph 13 mph 81% 0.00 in 60 W/m2
07:59 55 °F 49 °F 29.62 in WNW 6 mph 11 mph 80.4% 0.00 in 46 W/m2
08:04 54.9 °F 48.7 °F 29.62 in WNW 5.2 mph 11 mph 80% 0.00 in 37 W/m2
08:09 54.7 °F 48.6 °F 29.61 in WNW 5.4 mph 12 mph 80% 0.00 in 47 W/m2
08:14 54.8 °F 48.6 °F 29.61 in WNW 7.6 mph 13 mph 80% 0.00 in 63 W/m2
08:18 54.9 °F 48.7 °F 29.62 in WNW 6.8 mph 11 mph 80% 0.00 in 74 W/m2
08:24 55 °F 48.6 °F 29.62 in West 5.6 mph 12 mph 79% 0.00 in 76 W/m2
08:29 55 °F 48.6 °F 29.62 in West 6.4 mph 12 mph 79% 0.00 in 90 W/m2
08:34 55 °F 48.6 °F 29.62 in WNW 5.2 mph 13 mph 79% 0.00 in 123 W/m2
08:39 55.1 °F 48.7 °F 29.62 in WNW 5.5 mph 13 mph 79% 0.00 in 146 W/m2
08:44 55.3 °F 48.7 °F 29.62 in WNW 5.2 mph 10 mph 78.2% 0.00 in 193 W/m2
08:49 55.6 °F 48.9 °F 29.62 in WNW 4 mph 9 mph 78% 0.00 in 216 W/m2
08:54 55.8 °F 48.9 °F 29.63 in WNW 6.3 mph 9 mph 78% 0.00 in 204 W/m2
08:59 55.7 °F 48.6 °F 29.62 in NW 7.5 mph 14 mph 77% 0.00 in 98 W/m2
09:04 55.4 °F 48.4 °F 29.62 in WNW 7.4 mph 14 mph 77% 0.00 in 100 W/m2
09:09 55.2 °F 48.2 °F 29.62 in NW 6 mph 12 mph 77% 0.00 in 130 W/m2
09:14 55.3 °F 48.3 °F 29.63 in WNW 6.1 mph 11 mph 77% 0.00 in 137 W/m2
09:19 55.5 °F 48.5 °F 29.63 in WNW 4.8 mph 9 mph 77% 0.00 in 118 W/m2
09:24 55.5 °F 48.5 °F 29.63 in NW 7 mph 14 mph 77% 0.00 in 121 W/m2
09:29 55.5 °F 48.2 °F 29.63 in NNW 6.3 mph 15 mph 76.4% 0.00 in 142 W/m2
09:34 55.5 °F 48.1 °F 29.63 in NW 5.1 mph 12 mph 76% 0.00 in 144 W/m2
09:39 55.5 °F 48.1 °F 29.63 in NW 6.4 mph 15 mph 76% 0.00 in 135 W/m2
09:44 55.4 °F 48 °F 29.64 in WNW 5 mph 15 mph 76% 0.00 in 125 W/m2
09:49 55.4 °F 48 °F 29.64 in NW 5.8 mph 12 mph 76% 0.00 in 155 W/m2
09:54 55.4 °F 48 °F 29.64 in WNW 4.9 mph 9 mph 76% 0.00 in 190 W/m2
09:59 55.6 °F 48.2 °F 29.64 in WNW 6.6 mph 11 mph 76% 0.00 in 188 W/m2
10:04 55.6 °F 48.1 °F 29.65 in WNW 6.4 mph 12 mph 75.8% 0.00 in 193 W/m2
10:09 55.6 °F 47.8 °F 29.65 in NW 6.3 mph 15 mph 75% 0.00 in 221 W/m2
10:14 55.8 °F 47.9 °F 29.65 in NW 8.6 mph 19 mph 74.6% 0.00 in 383 W/m2
10:19 55.9 °F 47.6 °F 29.65 in NW 10.4 mph 19 mph 73.2% 0.00 in 265 W/m2
10:24 56 °F 47.2 °F 29.65 in WNW 6.7 mph 16 mph 72% 0.00 in 338 W/m2
10:29 56.3 °F 47.4 °F 29.65 in WNW 10.2 mph 21 mph 72% 0.00 in 550 W/m2
10:34 56.5 °F 47.3 °F 29.65 in NW 8.6 mph 20 mph 71.6% 0.00 in 234 W/m2
10:39 56.3 °F 47.4 °F 29.65 in WNW 9 mph 15 mph 72% 0.00 in 181 W/m2
10:44 56.1 °F 47.3 °F 29.65 in NW 10.2 mph 16 mph 72% 0.00 in 315 W/m2
10:49 56.3 °F 47.4 °F 29.65 in WNW 9 mph 18 mph 72% 0.00 in 503 W/m2
10:54 56.8 °F 47.6 °F 29.65 in NW 11.8 mph 19 mph 71.6% 0.00 in 469 W/m2
10:59 57 °F 47.3 °F 29.65 in WNW 10 mph 20 mph 70.2% 0.00 in 559 W/m2
11:04 57.4 °F 47.7 °F 29.65 in WNW 7 mph 22 mph 70% 0.00 in 559 W/m2
11:09 57.4 °F 47.6 °F 29.65 in WNW 8.5 mph 22 mph 69.8% 0.00 in 599 W/m2
11:13 57.7 °F 47.8 °F 29.65 in NW 6.8 mph 15 mph 69.8% 0.00 in 272 W/m2
11:19 57.7 °F 47.7 °F 29.65 in NW 7.6 mph 15 mph 69% 0.00 in 230 W/m2
11:24 57.7 °F 47.5 °F 29.65 in NW 8.4 mph 19 mph 68.4% 0.00 in 230 W/m2
11:29 57.5 °F 47.3 °F 29.65 in NW 6.7 mph 13 mph 68.6% 0.00 in 295 W/m2
11:34 57.4 °F 47.1 °F 29.65 in NNW 6.4 mph 13 mph 68.4% 0.00 in 220 W/m2
11:39 57.4 °F 47 °F 29.65 in WNW 8.4 mph 20 mph 68.2% 0.00 in 323 W/m2
11:44 57.5 °F 46.8 °F 29.64 in WNW 9.8 mph 19 mph 67.4% 0.00 in 241 W/m2
11:49 57.6 °F 46.8 °F 29.64 in WNW 9.4 mph 19 mph 67% 0.00 in 271 W/m2
11:54 57.8 °F 46.9 °F 29.64 in NW 7.9 mph 17 mph 67% 0.00 in 269 W/m2
11:59 57.8 °F 47.1 °F 29.65 in NW 11 mph 18 mph 67.6% 0.00 in 172 W/m2
12:04 57.3 °F 47.1 °F 29.65 in WNW 7 mph 17 mph 68.8% 0.00 in 181 W/m2
12:09 57.3 °F 47.4 °F 29.65 in NW 6 mph 14 mph 69.4% 0.00 in 181 W/m2
12:14 57.4 °F 47.3 °F 29.65 in WNW 4.1 mph 14 mph 69% 0.00 in 213 W/m2
12:19 57.6 °F 47.5 °F 29.65 in NW 6.2 mph 13 mph 69% 0.00 in 176 W/m2
12:24 57.6 °F 47.3 °F 29.65 in NW 9.8 mph 17 mph 68.5% 0.00 in 151 W/m2
12:29 57.3 °F 46.8 °F 29.65 in WNW 9 mph 17 mph 68% 0.00 in 287 W/m2
12:34 57.4 °F 47 °F 29.65 in NW 9.7 mph 17 mph 68% 0.00 in 411 W/m2
12:39 57.8 °F 46.9 °F 29.65 in NW 8.2 mph 19 mph 67% 0.00 in 302 W/m2
12:44 57.8 °F 46.8 °F 29.65 in WNW 10.5 mph 18 mph 66.6% 0.00 in 176 W/m2
12:49 57.3 °F 47 °F 29.65 in NNW 11.8 mph 23 mph 68.2% 0.00 in 186 W/m2
12:54 56.5 °F 47.3 °F 29.66 in NNW 9.2 mph 18 mph 71.6% 0.00 in 227 W/m2
12:59 56.1 °F 47.8 °F 29.66 in NW 7.4 mph 17 mph 73.2% 0.00 in 265 W/m2
13:04 56.5 °F 48.2 °F 29.66 in WNW 8.5 mph 17 mph 73.8% 0.00 in 288 W/m2
13:09 57 °F 47.4 °F 29.66 in NW 11 mph 25 mph 70.4% 0.00 in 696 W/m2
13:14 57.5 °F 47.1 °F 29.66 in NW 12.3 mph 23 mph 68.2% 0.00 in 766 W/m2
13:19 58.1 °F 47.2 °F 29.66 in NW 8.2 mph 23 mph 67.2% 0.00 in 563 W/m2
13:24 58.2 °F 46.8 °F 29.66 in NW 11.3 mph 22 mph 65.8% 0.00 in 642 W/m2
13:29 58.1 °F 46.5 °F 29.66 in North 9.6 mph 21 mph 65.2% 0.00 in 693 W/m2
13:34 58.5 °F 46.4 °F 29.66 in WNW 12.8 mph 25 mph 64.2% 0.00 in 605 W/m2
13:39 58.8 °F 46.7 °F 29.66 in NNW 7.8 mph 18 mph 64% 0.00 in 737 W/m2
13:44 59.4 °F 46.4 °F 29.66 in NW 14.6 mph 27 mph 62% 0.00 in 782 W/m2
13:49 59.4 °F 46.1 °F 29.66 in WNW 11.3 mph 19 mph 61.4% 0.00 in 745 W/m2
13:54 60 °F 45.8 °F 29.66 in NNW 10.6 mph 19 mph 59.4% 0.00 in 679 W/m2
13:59 60.5 °F 45.9 °F 29.66 in NW 10 mph 20 mph 58.4% 0.00 in 830 W/m2
14:04 60.6 °F 45.5 °F 29.66 in NNW 12.4 mph 19 mph 57.6% 0.00 in 830 W/m2
14:08 59.9 °F 44.9 °F 29.66 in NW 11.8 mph 19 mph 57.5% 0.00 in 424 W/m2
14:14 58.9 °F 44.5 °F 29.66 in NNW 11.6 mph 24 mph 58.6% 0.00 in 288 W/m2
14:19 58.6 °F 44.8 °F 29.66 in NW 7.8 mph 18 mph 60% 0.00 in 248 W/m2
14:24 58.6 °F 44.7 °F 29.66 in NNW 7.4 mph 14 mph 59.8% 0.00 in 169 W/m2
14:29 58.6 °F 44.8 °F 29.67 in NW 4.8 mph 12 mph 60% 0.00 in 141 W/m2
14:34 58.4 °F 44.5 °F 29.66 in NNW 6.9 mph 18 mph 60% 0.00 in 172 W/m2
14:39 58.5 °F 45 °F 29.67 in NW 6.3 mph 12 mph 60.8% 0.00 in 227 W/m2
14:44 58.5 °F 45 °F 29.67 in NW 4.9 mph 12 mph 60.8% 0.00 in 227 W/m2
14:49 58.7 °F 45.3 °F 29.67 in NW 9 mph 21 mph 61% 0.00 in 251 W/m2
14:54 58.8 °F 44.9 °F 29.67 in WNW 8.6 mph 21 mph 59.8% 0.00 in 260 W/m2
14:59 58.8 °F 44.9 °F 29.67 in NW 10.2 mph 20 mph 59.8% 0.00 in 221 W/m2
15:04 58.6 °F 44.4 °F 29.67 in NW 11.2 mph 21 mph 59% 0.00 in 179 W/m2
15:09 58.6 °F 44.7 °F 29.67 in NW 8.4 mph 18 mph 59.6% 0.00 in 236 W/m2
15:13 58.8 °F 45 °F 29.67 in NW 8 mph 16 mph 60% 0.00 in 329 W/m2
15:19 59.3 °F 45 °F 29.67 in NW 9 mph 15 mph 59.2% 0.00 in 397 W/m2
15:24 59.4 °F 44.7 °F 29.67 in WNW 9.5 mph 19 mph 58.2% 0.00 in 199 W/m2
15:29 59.3 °F 44.9 °F 29.67 in WNW 5.5 mph 19 mph 59% 0.00 in 146 W/m2
15:34 59.2 °F 44.5 °F 29.67 in NNW 7.6 mph 13 mph 58.2% 0.00 in 236 W/m2
15:39 59.3 °F 44.5 °F 29.67 in NW 7.4 mph 16 mph 58% 0.00 in 162 W/m2
15:44 59.2 °F 44.3 °F 29.67 in NW 6.8 mph 16 mph 57.8% 0.00 in 116 W/m2
15:49 59 °F 44.1 °F 29.67 in NW 6.5 mph 16 mph 57.8% 0.00 in 118 W/m2
15:54 59 °F 44.2 °F 29.67 in NW 7.2 mph 11 mph 58% 0.00 in 121 W/m2
15:59 59.2 °F 44.8 °F 29.67 in NW 3.6 mph 12 mph 59% 0.00 in 246 W/m2
16:04 59.3 °F 44.6 °F 29.67 in NW 6.7 mph 13 mph 58.2% 0.00 in 246 W/m2
16:09 59.4 °F 44.6 °F 29.67 in WNW 5.4 mph 13 mph 58% 0.00 in 146 W/m2
16:14 59.2 °F 44.5 °F 29.67 in NW 7.2 mph 14 mph 58.2% 0.00 in 167 W/m2
16:19 59.2 °F 44.3 °F 29.67 in WNW 6.1 mph 16 mph 57.8% 0.00 in 163 W/m2
16:24 59.2 °F 44.6 °F 29.67 in NW 7 mph 13 mph 58.4% 0.00 in 167 W/m2
16:29 59.2 °F 44.8 °F 29.67 in NW 8.2 mph 17 mph 59% 0.00 in 134 W/m2
16:34 59 °F 44.7 °F 29.67 in WNW 8.2 mph 11 mph 59% 0.00 in 120 W/m2
16:39 58.6 °F 44.8 °F 29.67 in WNW 8.2 mph 14 mph 60% 0.00 in 137 W/m2
16:44 58.6 °F 45.3 °F 29.67 in NW 7.6 mph 12 mph 61% 0.00 in 135 W/m2
16:49 58.6 °F 45.5 °F 29.67 in WNW 5.2 mph 12 mph 61.6% 0.00 in 135 W/m2
16:54 58.6 °F 46.2 °F 29.67 in West 7.2 mph 15 mph 63.4% 0.00 in 156 W/m2
16:59 58.5 °F 46.7 °F 29.67 in WNW 5.6 mph 12 mph 64.8% 0.00 in 156 W/m2
17:04 58.4 °F 46.7 °F 29.67 in WNW 6.8 mph 12 mph 65% 0.00 in 169 W/m2
17:09 58.3 °F 46.7 °F 29.67 in WNW 7.8 mph 15 mph 65.4% 0.00 in 214 W/m2
17:14 58.3 °F 46.9 °F 29.67 in WNW 7.6 mph 12 mph 66% 0.00 in 163 W/m2
17:19 58.5 °F 47.3 °F 29.68 in WNW 7.8 mph 14 mph 66.4% 0.00 in 278 W/m2
17:24 58.5 °F 47.3 °F 29.68 in WNW 6.6 mph 14 mph 66.4% 0.00 in 139 W/m2
17:29 58.3 °F 47.3 °F 29.68 in WNW 5 mph 12 mph 67% 0.00 in 91 W/m2
17:34 58.1 °F 47.1 °F 29.68 in WNW 5 mph 11 mph 67% 0.00 in 88 W/m2
17:39 57.8 °F 47.3 °F 29.68 in WNW 8.2 mph 16 mph 67.8% 0.00 in 54 W/m2
17:44 57.5 °F 46.9 °F 29.69 in WNW 8.2 mph 16 mph 67.6% 0.00 in 37 W/m2
17:49 57.1 °F 46.7 °F 29.69 in WNW 9.6 mph 16 mph 68% 0.00 in 28 W/m2
17:54 57 °F 46.7 °F 29.69 in NW 8.2 mph 15 mph 68.4% 0.00 in 25 W/m2
17:59 56.8 °F 46.7 °F 29.68 in WNW 10.4 mph 15 mph 68.8% 0.00 in 19 W/m2
18:04 56.8 °F 46.8 °F 29.69 in NW 6.8 mph 12 mph 69% 0.00 in 14 W/m2
18:09 56.6 °F 46.8 °F 29.70 in WNW 9.4 mph 17 mph 69.8% 0.00 in 21 W/m2
18:14 55.8 °F 47.4 °F 29.70 in NW 7 mph 16 mph 73.2% 0.00 in 28 W/m2
18:19 55.3 °F 47.5 °F 29.70 in WNW 4.8 mph 11 mph 74.8% 0.00 in 25 W/m2
18:24 55.2 °F 47.6 °F 29.70 in NW 3.9 mph 12 mph 75.4% 0.00 in 21 W/m2
18:29 55.2 °F 47.5 °F 29.70 in NW 4.6 mph 10 mph 75% 0.00 in 14 W/m2
18:34 55.3 °F 47.7 °F 29.70 in NNW 5 mph 10 mph 75% 0.00 in 5 W/m2
18:39 55.4 °F 47.7 °F 29.70 in NW 4.8 mph 9 mph 75% 0.00 in 0 W/m2
18:44 54.5 °F 47.3 °F 29.71 in NW 8.6 mph 15 mph 76.4% 0.03 in 5 W/m2
18:49 52.9 °F 46.3 °F 29.70 in WNW 5.6 mph 10 mph 78% 0.04 in 7 W/m2
18:54 52.3 °F 46.1 °F 29.70 in WNW 2.7 mph 7 mph 79.2% 0.04 in 5 W/m2
18:59 52.1 °F 46.5 °F 29.70 in NW 1.5 mph 5 mph 81% 0.04 in 0 W/m2
19:04 51.8 °F 46.5 °F 29.71 in NW 1.3 mph 3 mph 82.4% 0.04 in 0 W/m2
19:09 51.6 °F 46.7 °F 29.71 in WNW 1 mph 4 mph 83.4% 0.04 in 0 W/m2
19:14 51.7 °F 47 °F 29.71 in WNW 3.1 mph 8 mph 84% 0.04 in 0 W/m2
19:19 52 °F 47.5 °F 29.71 in WNW 4.1 mph 9 mph 84.6% 0.04 in 0 W/m2
19:24 52.2 °F 47.6 °F 29.71 in WNW 4.9 mph 8 mph 84.2% 0.04 in 0 W/m2
19:29 52.3 °F 47.7 °F 29.71 in WNW 3.7 mph 9 mph 84% 0.04 in 0 W/m2
19:34 52.5 °F 47.6 °F 29.71 in NW 4.1 mph 11 mph 83.2% 0.04 in 0 W/m2
19:39 52.7 °F 47.7 °F 29.72 in WNW 3.5 mph 8 mph 83% 0.04 in 0 W/m2
19:44 52.9 °F 47.5 °F 29.72 in WNW 4.7 mph 11 mph 82% 0.03 in 0 W/m2
19:49 53 °F 47.6 °F 29.72 in WNW 4.3 mph 11 mph 82% 0.00 in 0 W/m2
19:54 53.1 °F 47.4 °F 29.72 in WNW 6.2 mph 15 mph 81.2% 0.00 in 0 W/m2
19:59 53.1 °F 47.3 °F 29.72 in WNW 4.6 mph 11 mph 80.8% 0.00 in 0 W/m2
20:04 53.2 °F 47.2 °F 29.72 in WNW 4.8 mph 13 mph 80% 0.00 in 0 W/m2
20:09 53.1 °F 47.1 °F 29.72 in WNW 5.6 mph 9 mph 80% 0.00 in 0 W/m2
20:14 53.1 °F 47.1 °F 29.72 in WNW 3.5 mph 10 mph 80% 0.00 in 0 W/m2
20:19 53.1 °F 47.2 °F 29.72 in WNW 4.2 mph 11 mph 80% 0.00 in 0 W/m2
20:24 53.2 °F 47.3 °F 29.73 in WNW 5.4 mph 11 mph 80% 0.00 in 0 W/m2
20:29 53 °F 47 °F 29.73 in NW 3 mph 14 mph 80% 0.00 in 0 W/m2
20:34 52.8 °F 47.2 °F 29.72 in NW 4.9 mph 9 mph 81% 0.00 in 0 W/m2
20:39 52.7 °F 47.1 °F 29.72 in WNW 4.6 mph 11 mph 81% 0.00 in 0 W/m2
20:44 52.9 °F 47.3 °F 29.73 in WNW 6.4 mph 21 mph 81% 0.00 in 0 W/m2
20:49 53.2 °F 47.5 °F 29.73 in WNW 4 mph 14 mph 81% 0.00 in 0 W/m2
20:54 53.2 °F 47.5 °F 29.73 in West 5.2 mph 13 mph 81% 0.00 in 0 W/m2
20:59 53.1 °F 47.3 °F 29.73 in WNW 6.6 mph 10 mph 80.8% 0.00 in 0 W/m2
21:04 53 °F 47.1 °F 29.73 in NW 5.4 mph 8 mph 80.6% 0.00 in 0 W/m2
21:09 52.7 °F 47.1 °F 29.73 in West 3.6 mph 9 mph 81% 0.00 in 0 W/m2
21:14 52.5 °F 46.9 °F 29.73 in WNW 2.6 mph 7 mph 81% 0.00 in 0 W/m2
21:19 52.3 °F 46.8 °F 29.72 in WNW 5 mph 8 mph 81% 0.00 in 0 W/m2
21:24 52.4 °F 46.8 °F 29.72 in WNW 5.6 mph 10 mph 81% 0.00 in 0 W/m2
21:29 52.5 °F 46.9 °F 29.72 in WNW 6 mph 12 mph 81% 0.00 in 0 W/m2
21:34 52.5 °F 46.9 °F 29.72 in WNW 5.4 mph 12 mph 81% 0.00 in 0 W/m2
21:39 52.7 °F 46.8 °F 29.72 in WNW 3.7 mph 12 mph 80% 0.00 in 0 W/m2
21:44 52.5 °F 46.6 °F 29.72 in WNW 5.9 mph 10 mph 80% 0.00 in 0 W/m2
21:48 52.7 °F 46.8 °F 29.72 in WNW 4.2 mph 10 mph 80% 0.00 in 0 W/m2
21:54 52.5 °F 46.6 °F 29.72 in WNW 3.8 mph 8 mph 80% 0.00 in 0 W/m2
21:59 52.5 °F 46.6 °F 29.72 in West 5.4 mph 10 mph 80% 0.00 in 0 W/m2
22:04 52.5 °F 46.6 °F 29.72 in WNW 4.8 mph 10 mph 80% 0.00 in 0 W/m2
22:09 52.3 °F 46.4 °F 29.72 in West 5.2 mph 9 mph 80% 0.00 in 0 W/m2
22:14 52.2 °F 46.4 °F 29.72 in West 2.8 mph 7 mph 80.2% 0.00 in 0 W/m2
22:19 52 °F 46.4 °F 29.72 in West 3.5 mph 7 mph 81% 0.00 in 0 W/m2
22:24 52 °F 46.4 °F 29.72 in West 3.3 mph 7 mph 81% 0.00 in 0 W/m2
22:29 51.8 °F 46.4 °F 29.72 in West 4.3 mph 9 mph 82% 0.00 in 0 W/m2
22:34 52 °F 46.6 °F 29.72 in WNW 3.6 mph 9 mph 82% 0.00 in 0 W/m2
22:39 51.9 °F 46.5 °F 29.72 in West 5.2 mph 11 mph 82% 0.00 in 0 W/m2
22:44 52 °F 46.8 °F 29.72 in West 4.2 mph 10 mph 82.8% 0.00 in 0 W/m2
22:49 51.8 °F 46.8 °F 29.72 in West 2.6 mph 8 mph 83% 0.00 in 0 W/m2
22:54 51.8 °F 46.8 °F 29.72 in West 3.1 mph 8 mph 83% 0.00 in 0 W/m2
22:59 51.8 °F 46.9 °F 29.72 in WNW 2.8 mph 7 mph 83.6% 0.00 in 0 W/m2
23:04 51.6 °F 46.9 °F 29.73 in West 2.8 mph 4 mph 84% 0.00 in 0 W/m2
23:09 51.6 °F 46.9 °F 29.73 in West 2.2 mph 4 mph 84% 0.00 in 0 W/m2
23:14 51.4 °F 46.9 °F 29.72 in West 2.6 mph 5 mph 84.4% 0.00 in 0 W/m2
23:19 51.4 °F 47.1 °F 29.72 in West 3.1 mph 5 mph 85% 0.00 in 0 W/m2
23:24 51.3 °F 46.9 °F 29.72 in West 1.7 mph 6 mph 85% 0.00 in 0 W/m2
23:29 51.3 °F 46.9 °F 29.72 in West 4.1 mph 7 mph 85% 0.00 in 0 W/m2
23:34 51.4 °F 47.1 °F 29.72 in WNW 3.7 mph 11 mph 85% 0.00 in 0 W/m2
23:39 51.4 °F 47.1 °F 29.72 in WNW 4.5 mph 9 mph 85% 0.00 in 0 W/m2
23:44 51.4 °F 47.1 °F 29.72 in West 4.1 mph 7 mph 85% 0.00 in 0 W/m2
23:49 51.4 °F 47.1 °F 29.72 in WNW 3.3 mph 10 mph 85% 0.00 in 0 W/m2
23:54 51.4 °F 47 °F 29.72 in WNW 4 mph 10 mph 85% 0.00 in 0 W/m2
23:59 51.3 °F 47 °F 29.72 in WNW 2.9 mph 6 mph 85% 0.00 in 0 W/m2
Bath Spa Weather
Compliments of Weather Underground - 2 mb